createdAt,value
2018-08-31T00:00:53.607Z,1007.44
2018-08-31T00:01:53.625Z,1007.38
2018-08-31T00:02:53.653Z,1007.40
2018-08-31T00:03:53.668Z,1007.39
2018-08-31T00:04:53.681Z,1007.41
2018-08-31T00:05:53.696Z,1007.41
2018-08-31T00:06:53.749Z,1007.41
2018-08-31T00:07:53.740Z,1007.38
2018-08-31T00:08:53.754Z,1007.42
2018-08-31T00:09:53.772Z,1007.40
2018-08-31T00:10:53.789Z,1007.42
2018-08-31T00:11:53.808Z,1007.42
2018-08-31T00:12:53.824Z,1007.40
2018-08-31T00:13:53.840Z,1007.41
2018-08-31T00:14:53.863Z,1007.41
2018-08-31T00:15:53.878Z,1007.44
2018-08-31T00:16:53.896Z,1007.45
2018-08-31T00:17:53.915Z,1007.44
2018-08-31T00:18:53.940Z,1007.41
2018-08-31T00:19:53.948Z,1007.46
2018-08-31T00:20:53.967Z,1007.45
2018-08-31T00:21:53.987Z,1007.46
2018-08-31T00:22:54.005Z,1007.46
2018-08-31T00:23:54.022Z,1007.44
2018-08-31T00:24:54.041Z,1007.41
2018-08-31T00:25:54.057Z,1007.41
2018-08-31T00:26:54.075Z,1007.43
2018-08-31T00:27:54.093Z,1007.43
2018-08-31T00:28:54.109Z,1007.42
2018-08-31T00:29:54.144Z,1007.41
2018-08-31T00:30:54.154Z,1007.39
2018-08-31T00:31:54.168Z,1007.40
2018-08-31T00:32:54.184Z,1007.38
2018-08-31T00:33:54.202Z,1007.41
2018-08-31T00:34:54.273Z,1007.41
2018-08-31T00:35:54.241Z,1007.40
2018-08-31T00:36:54.255Z,1007.35
2018-08-31T00:37:54.272Z,1007.39
2018-08-31T00:38:54.294Z,1007.39
2018-08-31T00:39:54.309Z,1007.38
2018-08-31T00:40:54.326Z,1007.37
2018-08-31T00:41:54.346Z,1007.39
2018-08-31T00:42:54.364Z,1007.40
2018-08-31T00:43:54.379Z,1007.37
2018-08-31T00:44:54.398Z,1007.33
2018-08-31T00:45:54.415Z,1007.36
2018-08-31T00:46:54.438Z,1007.32
2018-08-31T00:47:54.451Z,1007.30
2018-08-31T00:48:54.470Z,1007.30
2018-08-31T00:49:54.487Z,1007.31
2018-08-31T00:50:54.504Z,1007.30
2018-08-31T00:51:54.524Z,1007.31
2018-08-31T00:52:54.548Z,1007.29
2018-08-31T00:53:54.559Z,1007.32
2018-08-31T00:54:54.579Z,1007.33
2018-08-31T00:55:54.592Z,1007.30
2018-08-31T00:56:54.614Z,1007.31
2018-08-31T00:57:54.707Z,1007.32
2018-08-31T00:58:54.656Z,1007.31
2018-08-31T00:59:54.675Z,1007.31
2018-08-31T01:00:54.683Z,1007.36
2018-08-31T01:01:54.706Z,1007.33
2018-08-31T01:02:54.718Z,1007.33
2018-08-31T01:03:54.739Z,1007.30
2018-08-31T01:04:54.753Z,1007.28
2018-08-31T01:05:54.771Z,1007.31
2018-08-31T01:06:54.800Z,1007.29
2018-08-31T01:07:54.809Z,1007.28
2018-08-31T01:08:54.826Z,1007.30
2018-08-31T01:09:54.846Z,1007.30
2018-08-31T01:10:54.863Z,1007.29
2018-08-31T01:11:54.882Z,1007.27
2018-08-31T01:12:54.901Z,1007.23
2018-08-31T01:13:54.916Z,1007.25
2018-08-31T01:14:54.932Z,1007.27
2018-08-31T01:15:54.950Z,1007.24
2018-08-31T01:16:54.967Z,1007.24
2018-08-31T01:17:54.991Z,1007.23
2018-08-31T01:18:55.004Z,1007.27
2018-08-31T01:19:55.027Z,1007.27
2018-08-31T01:20:55.045Z,1007.27
2018-08-31T01:21:55.061Z,1007.31
2018-08-31T01:22:55.074Z,1007.34
2018-08-31T01:23:55.094Z,1007.35
2018-08-31T01:24:55.110Z,1007.37
2018-08-31T01:25:55.133Z,1007.38
2018-08-31T01:26:55.148Z,1007.42
2018-08-31T01:27:55.163Z,1007.41
2018-08-31T01:28:55.181Z,1007.36
2018-08-31T01:29:55.200Z,1007.43
2018-08-31T01:30:55.217Z,1007.39
2018-08-31T01:31:55.234Z,1007.41
2018-08-31T01:32:55.253Z,1007.39
2018-08-31T01:33:55.275Z,1007.42
2018-08-31T01:34:55.286Z,1007.42
2018-08-31T01:35:55.309Z,1007.43
2018-08-31T01:36:55.322Z,1007.41
2018-08-31T01:37:55.343Z,1007.43
2018-08-31T01:38:55.361Z,1007.42
2018-08-31T01:39:55.376Z,1007.44
2018-08-31T01:40:55.395Z,1007.43
2018-08-31T01:41:55.412Z,1007.39
2018-08-31T01:42:55.446Z,1007.40
2018-08-31T01:43:55.451Z,1007.46
2018-08-31T01:44:55.464Z,1007.46
2018-08-31T01:45:55.490Z,1007.43
2018-08-31T01:46:55.502Z,1007.48
2018-08-31T01:47:55.520Z,1007.51
2018-08-31T01:48:55.537Z,1007.50
2018-08-31T01:49:55.555Z,1007.47
2018-08-31T01:50:55.571Z,1007.49
2018-08-31T01:51:55.590Z,1007.48
2018-08-31T01:52:55.606Z,1007.48
2018-08-31T01:53:55.624Z,1007.47
2018-08-31T01:54:55.641Z,1007.46
2018-08-31T01:55:55.658Z,1007.41
2018-08-31T01:56:55.679Z,1007.39
2018-08-31T01:57:55.694Z,1007.41
2018-08-31T01:58:55.716Z,1007.38
2018-08-31T01:59:55.738Z,1007.41
2018-08-31T02:00:55.748Z,1007.43
2018-08-31T02:01:55.768Z,1007.36
2018-08-31T02:02:55.785Z,1007.37
2018-08-31T02:03:55.803Z,1007.36
2018-08-31T02:04:55.818Z,1007.39
2018-08-31T02:05:55.839Z,1007.36
2018-08-31T02:06:55.854Z,1007.37
2018-08-31T02:07:55.874Z,1007.36
2018-08-31T02:08:55.892Z,1007.33
2018-08-31T02:09:55.911Z,1007.33
2018-08-31T02:10:55.927Z,1007.37
2018-08-31T02:11:55.945Z,1007.34
2018-08-31T02:12:55.964Z,1007.37
2018-08-31T02:13:55.980Z,1007.35
2018-08-31T02:14:56.000Z,1007.35
2018-08-31T02:15:56.018Z,1007.36
2018-08-31T02:16:56.033Z,1007.34
2018-08-31T02:17:56.055Z,1007.38
2018-08-31T02:18:56.072Z,1007.38
2018-08-31T02:19:56.092Z,1007.37
2018-08-31T02:20:56.107Z,1007.38
2018-08-31T02:21:56.125Z,1007.38
2018-08-31T02:22:56.152Z,1007.42
2018-08-31T02:23:56.165Z,1007.40
2018-08-31T02:24:56.178Z,1007.40
2018-08-31T02:25:56.197Z,1007.39
2018-08-31T02:26:56.221Z,1007.38
2018-08-31T02:27:56.235Z,1007.44
2018-08-31T02:28:56.251Z,1007.44
2018-08-31T02:29:56.269Z,1007.43
2018-08-31T02:30:56.288Z,1007.44
2018-08-31T02:31:56.459Z,1007.44
2018-08-31T02:32:56.323Z,1007.45
2018-08-31T02:33:56.343Z,1007.48
2018-08-31T02:34:56.359Z,1007.45
2018-08-31T02:35:56.379Z,1007.45
2018-08-31T02:36:56.395Z,1007.46
2018-08-31T02:37:56.441Z,1007.47
2018-08-31T02:38:56.434Z,1007.43
2018-08-31T02:39:56.451Z,1007.44
2018-08-31T02:40:56.471Z,1007.46
2018-08-31T02:41:56.506Z,1007.47
2018-08-31T02:42:56.513Z,1007.45
2018-08-31T02:43:56.524Z,1007.45
2018-08-31T02:44:56.540Z,1007.45
2018-08-31T02:45:56.558Z,1007.44
2018-08-31T02:46:56.581Z,1007.44
2018-08-31T02:47:56.596Z,1007.44
2018-08-31T02:48:56.613Z,1007.45
2018-08-31T02:49:56.634Z,1007.42
2018-08-31T02:50:56.656Z,1007.43
2018-08-31T02:51:56.671Z,1007.42
2018-08-31T02:52:56.686Z,1007.47
2018-08-31T02:53:56.702Z,1007.45
2018-08-31T02:54:56.721Z,1007.42
2018-08-31T02:55:56.745Z,1007.42
2018-08-31T02:56:56.763Z,1007.42
2018-08-31T02:57:56.778Z,1007.40
2018-08-31T02:58:56.793Z,1007.41
2018-08-31T02:59:56.814Z,1007.41
2018-08-31T03:00:56.830Z,1007.43
2018-08-31T03:01:56.848Z,1007.43
2018-08-31T03:02:56.867Z,1007.43
2018-08-31T03:03:56.888Z,1007.44
2018-08-31T03:04:56.902Z,1007.43
2018-08-31T03:05:56.923Z,1007.49
2018-08-31T03:06:56.944Z,1007.48
2018-08-31T03:07:56.959Z,1007.46
2018-08-31T03:08:56.978Z,1007.46
2018-08-31T03:09:56.992Z,1007.47
2018-08-31T03:10:57.013Z,1007.49
2018-08-31T03:11:57.030Z,1007.48
2018-08-31T03:12:57.051Z,1007.47
2018-08-31T03:13:57.070Z,1007.45
2018-08-31T03:14:57.086Z,1007.47
2018-08-31T03:15:57.101Z,1007.44
2018-08-31T03:16:57.124Z,1007.43
2018-08-31T03:17:57.144Z,1007.42
2018-08-31T03:18:57.159Z,1007.39
2018-08-31T03:19:57.174Z,1007.45
2018-08-31T03:20:57.196Z,1007.45
2018-08-31T03:21:57.215Z,1007.46
2018-08-31T03:22:57.232Z,1007.45
2018-08-31T03:23:57.255Z,1007.42
2018-08-31T03:24:57.267Z,1007.41
2018-08-31T03:25:57.282Z,1007.37
2018-08-31T03:26:57.299Z,1007.41
2018-08-31T03:27:57.321Z,1007.39
2018-08-31T03:28:57.338Z,1007.42
2018-08-31T03:29:57.355Z,1007.38
2018-08-31T03:30:57.380Z,1007.41
2018-08-31T03:31:57.394Z,1007.38
2018-08-31T03:32:57.409Z,1007.42
2018-08-31T03:33:57.431Z,1007.39
2018-08-31T03:34:57.448Z,1007.41
2018-08-31T03:35:57.465Z,1007.40
2018-08-31T03:36:57.554Z,1007.41
2018-08-31T03:37:57.502Z,1007.43
2018-08-31T03:38:57.516Z,1007.42
2018-08-31T03:39:57.537Z,1007.42
2018-08-31T03:40:57.552Z,1007.39
2018-08-31T03:41:57.573Z,1007.41
2018-08-31T03:42:57.592Z,1007.41
2018-08-31T03:43:57.609Z,1007.42
2018-08-31T03:44:57.623Z,1007.37
2018-08-31T03:45:57.649Z,1007.41
2018-08-31T03:46:57.663Z,1007.39
2018-08-31T03:47:57.679Z,1007.42
2018-08-31T03:48:57.696Z,1007.44
2018-08-31T03:49:57.715Z,1007.43
2018-08-31T03:50:57.734Z,1007.39
2018-08-31T03:51:57.755Z,1007.44
2018-08-31T03:52:57.770Z,1007.43
2018-08-31T03:53:57.788Z,1007.42
2018-08-31T03:54:57.806Z,1007.38
2018-08-31T03:55:57.826Z,1007.37
2018-08-31T03:56:57.842Z,1007.36
2018-08-31T03:57:57.860Z,1007.34
2018-08-31T03:58:57.877Z,1007.35
2018-08-31T03:59:57.897Z,1007.33
2018-08-31T04:00:57.913Z,1007.34
2018-08-31T04:01:57.933Z,1007.33
2018-08-31T04:02:57.951Z,1007.34
2018-08-31T04:03:57.985Z,1007.31
2018-08-31T04:04:57.991Z,1007.35
2018-08-31T04:05:58.004Z,1007.38
2018-08-31T04:06:58.023Z,1007.39
2018-08-31T04:07:58.040Z,1007.38
2018-08-31T04:08:58.059Z,1007.37
2018-08-31T04:09:58.103Z,1007.39
2018-08-31T04:10:58.094Z,1007.39
2018-08-31T04:11:58.113Z,1007.38
2018-08-31T04:12:58.132Z,1007.39
2018-08-31T04:13:58.155Z,1007.39
2018-08-31T04:14:58.220Z,1007.38
2018-08-31T04:15:58.184Z,1007.38
2018-08-31T04:16:58.201Z,1007.39
2018-08-31T04:17:58.223Z,1007.38
2018-08-31T04:18:58.242Z,1007.40
2018-08-31T04:19:58.262Z,1007.41
2018-08-31T04:20:58.280Z,1007.38
2018-08-31T04:21:58.292Z,1007.42
2018-08-31T04:22:58.312Z,1007.41
2018-08-31T04:23:58.328Z,1007.44
2018-08-31T04:24:58.345Z,1007.44
2018-08-31T04:25:58.368Z,1007.44
2018-08-31T04:26:58.383Z,1007.44
2018-08-31T04:27:58.403Z,1007.43
2018-08-31T04:28:58.418Z,1007.46
2018-08-31T04:29:58.438Z,1007.47
2018-08-31T04:30:58.454Z,1007.45
2018-08-31T04:31:58.476Z,1007.44
2018-08-31T04:32:58.492Z,1007.46
2018-08-31T04:33:58.532Z,1007.44
2018-08-31T04:34:58.532Z,1007.48
2018-08-31T04:35:58.551Z,1007.50
2018-08-31T04:36:58.568Z,1007.51
2018-08-31T04:37:58.583Z,1007.48
2018-08-31T04:38:58.602Z,1007.50
2018-08-31T04:39:58.617Z,1007.53
2018-08-31T04:40:58.638Z,1007.54
2018-08-31T04:41:58.654Z,1007.52
2018-08-31T04:42:58.719Z,1007.54
2018-08-31T04:43:58.691Z,1007.52
2018-08-31T04:44:58.708Z,1007.54
2018-08-31T04:45:58.728Z,1007.53
2018-08-31T04:46:58.742Z,1007.51
2018-08-31T04:47:58.760Z,1007.50
2018-08-31T04:48:58.778Z,1007.49
2018-08-31T04:49:58.808Z,1007.48
2018-08-31T04:50:58.819Z,1007.45
2018-08-31T04:51:58.834Z,1007.47
2018-08-31T04:52:58.856Z,1007.47
2018-08-31T04:53:58.875Z,1007.47
2018-08-31T04:54:58.885Z,1007.49
2018-08-31T04:55:58.907Z,1007.53
2018-08-31T04:56:58.922Z,1007.48
2018-08-31T04:57:58.942Z,1007.53
2018-08-31T04:58:58.974Z,1007.53
2018-08-31T04:59:58.979Z,1007.55
2018-08-31T05:00:58.997Z,1007.54
2018-08-31T05:01:59.013Z,1007.52
2018-08-31T05:02:59.033Z,1007.56
2018-08-31T05:03:59.050Z,1007.55
2018-08-31T05:04:59.068Z,1007.57
2018-08-31T05:05:59.086Z,1007.58
2018-08-31T05:06:59.105Z,1007.58
2018-08-31T05:07:59.127Z,1007.60
2018-08-31T05:08:59.138Z,1007.61
2018-08-31T05:09:59.160Z,1007.61
2018-08-31T05:10:59.175Z,1007.62
2018-08-31T05:11:59.197Z,1007.65
2018-08-31T05:12:59.213Z,1007.62
2018-08-31T05:13:59.231Z,1007.63
2018-08-31T05:14:59.249Z,1007.65
2018-08-31T05:15:59.296Z,1007.63
2018-08-31T05:16:59.285Z,1007.68
2018-08-31T05:17:59.307Z,1007.65
2018-08-31T05:18:59.325Z,1007.66
2018-08-31T05:19:59.339Z,1007.64
2018-08-31T05:20:59.357Z,1007.67
2018-08-31T05:21:59.373Z,1007.65
2018-08-31T05:22:59.455Z,1007.63
2018-08-31T05:23:59.410Z,1007.66
2018-08-31T05:24:59.427Z,1007.64
2018-08-31T05:25:59.444Z,1007.68
2018-08-31T05:26:59.472Z,1007.69
2018-08-31T05:27:59.485Z,1007.71
2018-08-31T05:28:59.499Z,1007.72
2018-08-31T05:29:59.518Z,1007.74
2018-08-31T05:30:59.536Z,1007.74
2018-08-31T05:31:59.561Z,1007.74
2018-08-31T05:32:59.572Z,1007.76
2018-08-31T05:33:59.628Z,1007.76
2018-08-31T05:34:59.607Z,1007.81
2018-08-31T05:35:59.635Z,1007.78
2018-08-31T05:36:59.651Z,1007.75
2018-08-31T05:37:59.666Z,1007.80
2018-08-31T05:38:59.680Z,1007.84
2018-08-31T05:39:59.701Z,1007.83
2018-08-31T05:40:59.737Z,1007.87
2018-08-31T05:41:59.738Z,1007.88
2018-08-31T05:42:59.753Z,1007.89
2018-08-31T05:43:59.772Z,1007.91
2018-08-31T05:44:59.791Z,1007.93
2018-08-31T05:45:59.810Z,1007.93
2018-08-31T05:46:59.879Z,1007.96
2018-08-31T05:47:59.848Z,1007.94
2018-08-31T05:48:59.865Z,1007.95
2018-08-31T05:49:59.880Z,1007.93
2018-08-31T05:50:59.900Z,1007.98
2018-08-31T05:51:59.920Z,1007.96
2018-08-31T05:52:59.936Z,1007.94
2018-08-31T05:53:59.961Z,1007.93
2018-08-31T05:54:59.975Z,1007.90
2018-08-31T05:55:59.991Z,1007.96
2018-08-31T05:57:00.009Z,1007.96
2018-08-31T05:58:00.028Z,1007.94
2018-08-31T05:59:00.044Z,1007.96
2018-08-31T06:00:00.069Z,1007.97
2018-08-31T06:01:00.081Z,1007.98
2018-08-31T06:02:00.127Z,1008.01
2018-08-31T06:03:00.117Z,1008.01
2018-08-31T06:04:00.137Z,1008.01
2018-08-31T06:05:00.153Z,1007.99
2018-08-31T06:06:00.174Z,1008.02
2018-08-31T06:07:00.240Z,1008.02
2018-08-31T06:08:00.209Z,1008.07
2018-08-31T06:09:00.228Z,1008.08
2018-08-31T06:10:00.245Z,1008.06
2018-08-31T06:11:00.266Z,1008.07
2018-08-31T06:12:00.393Z,1008.05
2018-08-31T06:13:00.303Z,1008.04
2018-08-31T06:14:00.318Z,1008.06
2018-08-31T06:15:00.340Z,1007.99
2018-08-31T06:16:00.355Z,1008.01
2018-08-31T06:17:00.377Z,1007.98
2018-08-31T06:18:00.392Z,1008.02
2018-08-31T06:19:00.414Z,1008.05
2018-08-31T06:20:00.429Z,1008.03
2018-08-31T06:21:00.508Z,1008.06
2018-08-31T06:22:00.466Z,1008.08
2018-08-31T06:23:00.484Z,1008.08
2018-08-31T06:24:00.507Z,1008.09
2018-08-31T06:25:00.528Z,1008.13
2018-08-31T06:26:00.547Z,1008.15
2018-08-31T06:27:00.594Z,1008.16
2018-08-31T06:28:00.580Z,1008.17
2018-08-31T06:29:00.597Z,1008.17
2018-08-31T06:30:00.614Z,1008.17
2018-08-31T06:31:00.635Z,1008.18
2018-08-31T06:32:00.651Z,1008.18
2018-08-31T06:33:00.671Z,1008.19
2018-08-31T06:34:00.735Z,1008.14
2018-08-31T06:35:00.713Z,1008.19
2018-08-31T06:36:00.725Z,1008.21
2018-08-31T06:37:00.744Z,1008.21
2018-08-31T06:38:00.762Z,1008.18
2018-08-31T06:39:00.780Z,1008.22
2018-08-31T06:40:00.800Z,1008.20
2018-08-31T06:41:00.826Z,1008.22
2018-08-31T06:42:00.836Z,1008.22
2018-08-31T06:43:00.857Z,1008.23
2018-08-31T06:44:00.873Z,1008.22
2018-08-31T06:45:00.891Z,1008.19
2018-08-31T06:46:00.908Z,1008.25
2018-08-31T06:47:00.927Z,1008.20
2018-08-31T06:48:00.947Z,1008.18
2018-08-31T06:49:00.964Z,1008.21
2018-08-31T06:50:00.985Z,1008.20
2018-08-31T06:51:01.011Z,1008.20
2018-08-31T06:52:01.025Z,1008.22
2018-08-31T06:53:01.039Z,1008.20
2018-08-31T06:54:01.057Z,1008.19
2018-08-31T06:55:01.076Z,1008.19
2018-08-31T06:56:01.097Z,1008.21
2018-08-31T06:57:01.115Z,1008.23
2018-08-31T06:58:01.132Z,1008.22
2018-08-31T06:59:01.152Z,1008.22
2018-08-31T07:00:01.171Z,1008.24
2018-08-31T07:01:01.191Z,1008.23
2018-08-31T07:02:01.209Z,1008.25
2018-08-31T07:03:01.228Z,1008.26
2018-08-31T07:04:01.245Z,1008.31
2018-08-31T07:05:01.262Z,1008.30
2018-08-31T07:06:01.282Z,1008.28
2018-08-31T07:07:01.301Z,1008.29
2018-08-31T07:08:01.321Z,1008.27
2018-08-31T07:09:01.337Z,1008.31
2018-08-31T07:10:01.356Z,1008.32
2018-08-31T07:11:01.371Z,1008.32
2018-08-31T07:12:01.394Z,1008.34
2018-08-31T07:13:01.412Z,1008.38
2018-08-31T07:14:01.433Z,1008.39
2018-08-31T07:15:01.450Z,1008.41
2018-08-31T07:16:01.467Z,1008.41
2018-08-31T07:17:01.487Z,1008.43
2018-08-31T07:18:01.504Z,1008.41
2018-08-31T07:19:01.523Z,1008.44
2018-08-31T07:20:01.544Z,1008.47
2018-08-31T07:21:01.559Z,1008.53
2018-08-31T07:22:01.588Z,1008.54
2018-08-31T07:23:01.600Z,1008.58
2018-08-31T07:24:01.620Z,1008.58
2018-08-31T07:25:01.637Z,1008.65
2018-08-31T07:26:01.653Z,1008.64
2018-08-31T07:27:01.677Z,1008.70
2018-08-31T07:28:01.691Z,1008.72
2018-08-31T07:29:01.709Z,1008.78
2018-08-31T07:30:01.728Z,1008.77
2018-08-31T07:31:01.751Z,1008.78
2018-08-31T07:32:01.803Z,1008.81
2018-08-31T07:33:01.785Z,1008.77
2018-08-31T07:34:01.804Z,1008.83
2018-08-31T07:35:01.832Z,1008.90
2018-08-31T07:36:01.844Z,1008.95
2018-08-31T07:37:01.861Z,1008.86
2018-08-31T07:38:01.881Z,1008.84
2018-08-31T07:39:01.902Z,1008.90
2018-08-31T07:40:01.923Z,1009.01
2018-08-31T07:41:01.936Z,1008.93
2018-08-31T07:42:01.956Z,1008.92
2018-08-31T07:43:01.987Z,1008.92
2018-08-31T07:44:01.997Z,1008.98
2018-08-31T07:45:02.012Z,1009.08
2018-08-31T07:46:02.032Z,1009.04
2018-08-31T07:47:02.054Z,1009.08
2018-08-31T07:48:02.075Z,1009.18
2018-08-31T07:49:02.092Z,1009.12
2018-08-31T07:50:02.112Z,1009.18
2018-08-31T07:51:02.130Z,1009.13
2018-08-31T07:52:02.166Z,1009.12
2018-08-31T07:53:02.168Z,1009.06
2018-08-31T07:54:02.191Z,1009.18
2018-08-31T07:55:02.212Z,1009.18
2018-08-31T07:56:02.230Z,1009.24
2018-08-31T07:57:02.248Z,1009.80
2018-08-31T07:58:02.267Z,1009.55
2018-08-31T07:59:02.291Z,1009.59
2018-08-31T08:00:02.307Z,1009.81
2018-08-31T08:01:02.330Z,1012.01
2018-08-31T08:02:02.346Z,1014.54
2018-08-31T08:03:02.365Z,1013.47
2018-08-31T08:04:02.386Z,1011.32
2018-08-31T08:05:02.412Z,1010.25
2018-08-31T08:06:02.428Z,1011.40
2018-08-31T08:07:02.447Z,1013.05
2018-08-31T08:08:02.468Z,1014.99
2018-08-31T08:09:02.491Z,1019.20
2018-08-31T08:10:02.506Z,1014.81
2018-08-31T08:11:02.530Z,1016.24
2018-08-31T08:12:02.557Z,1011.80
2018-08-31T08:13:02.569Z,1011.58
2018-08-31T08:14:02.589Z,1013.35
2018-08-31T08:15:02.616Z,1017.31
2018-08-31T08:16:02.637Z,1012.16
2018-08-31T08:17:02.657Z,1012.11
2018-08-31T08:18:02.679Z,1011.84
2018-08-31T08:19:02.697Z,1012.48
2018-08-31T08:20:02.720Z,1011.79
2018-08-31T08:21:02.740Z,1010.48
2018-08-31T08:22:02.766Z,1010.32
2018-08-31T08:23:02.784Z,1010.61
2018-08-31T08:24:02.808Z,1012.27
2018-08-31T08:25:02.828Z,1010.67
2018-08-31T08:26:02.846Z,1010.63
2018-08-31T08:27:02.877Z,1010.56
2018-08-31T08:28:02.895Z,1010.56
2018-08-31T08:29:02.918Z,1010.30
2018-08-31T08:30:02.937Z,1010.55
2018-08-31T08:31:02.962Z,1011.36
2018-08-31T08:32:02.982Z,1011.27
2018-08-31T08:33:03.003Z,1011.17
2018-08-31T08:34:03.026Z,1011.11
2018-08-31T08:35:03.045Z,1010.96
2018-08-31T08:36:03.096Z,1010.80
2018-08-31T08:37:03.090Z,1010.72
2018-08-31T08:38:03.111Z,1010.66
2018-08-31T08:39:03.132Z,1010.73
2018-08-31T08:40:03.161Z,1010.62
2018-08-31T08:41:03.186Z,1010.45
2018-08-31T08:42:03.275Z,1010.33
2018-08-31T08:43:03.221Z,1010.30
2018-08-31T08:44:03.244Z,1010.25
2018-08-31T08:45:03.266Z,1010.21
2018-08-31T08:46:03.303Z,1010.10
2018-08-31T08:47:03.309Z,1009.90
2018-08-31T08:48:03.335Z,1009.83
2018-08-31T08:49:03.358Z,1009.79
2018-08-31T08:50:03.379Z,1009.77
2018-08-31T08:51:03.400Z,1009.74
2018-08-31T08:52:03.427Z,1009.71
2018-08-31T08:53:03.444Z,1009.77
2018-08-31T08:54:03.464Z,1009.74
2018-08-31T08:55:03.488Z,1009.73
2018-08-31T08:56:03.509Z,1009.71
2018-08-31T08:57:03.532Z,1009.65
2018-08-31T08:58:03.608Z,1009.67
2018-08-31T08:59:03.576Z,1009.70
2018-08-31T09:00:03.600Z,1009.70
2018-08-31T09:01:03.620Z,1009.74
2018-08-31T09:02:03.642Z,1009.73
2018-08-31T09:03:03.669Z,1009.82
2018-08-31T09:04:03.688Z,1009.84
2018-08-31T09:05:03.707Z,1009.83
2018-08-31T09:06:03.730Z,1009.84
2018-08-31T09:07:03.757Z,1009.73
2018-08-31T09:08:03.776Z,1009.63
2018-08-31T09:09:03.799Z,1009.57
2018-08-31T09:10:03.821Z,1009.48
2018-08-31T09:11:03.843Z,1009.37
2018-08-31T09:12:03.870Z,1009.32
2018-08-31T09:13:03.891Z,1009.22
2018-08-31T09:14:03.909Z,1009.10
2018-08-31T09:15:03.936Z,1009.09
2018-08-31T09:16:03.956Z,1009.02
2018-08-31T09:17:03.980Z,1009.05
2018-08-31T09:18:04.001Z,1009.00
2018-08-31T09:19:04.023Z,1008.99
2018-08-31T09:20:04.066Z,1008.96
2018-08-31T09:21:04.070Z,1009.00
2018-08-31T09:22:04.095Z,1008.97
2018-08-31T09:23:04.112Z,1008.91
2018-08-31T09:24:04.138Z,1008.89
2018-08-31T09:25:04.154Z,1008.97
2018-08-31T09:26:04.187Z,1008.94
2018-08-31T09:27:04.205Z,1009.01
2018-08-31T09:28:04.225Z,1009.04
2018-08-31T09:29:04.248Z,1008.99
2018-08-31T09:30:04.268Z,1009.04
2018-08-31T09:31:04.294Z,1009.16
2018-08-31T09:32:04.316Z,1009.18
2018-08-31T09:33:04.335Z,1009.12
2018-08-31T09:34:04.359Z,1009.10
2018-08-31T09:35:04.389Z,1009.09
2018-08-31T09:36:04.405Z,1009.14
2018-08-31T09:37:04.425Z,1009.22
2018-08-31T09:38:04.449Z,1009.15
2018-08-31T09:39:04.472Z,1009.05
2018-08-31T09:40:04.497Z,1008.95
2018-08-31T09:41:04.515Z,1008.88
2018-08-31T09:42:04.539Z,1008.79
2018-08-31T09:43:04.564Z,1008.78
2018-08-31T09:44:04.581Z,1008.71
2018-08-31T09:45:04.607Z,1008.69
2018-08-31T09:46:04.626Z,1008.66
2018-08-31T09:47:04.648Z,1008.61
2018-08-31T09:48:04.671Z,1008.62
2018-08-31T09:49:04.689Z,1008.65
2018-08-31T09:50:04.712Z,1008.61
2018-08-31T09:51:04.784Z,1008.58
2018-08-31T09:52:04.760Z,1008.52
2018-08-31T09:53:04.784Z,1008.50
2018-08-31T09:54:04.798Z,1008.50
2018-08-31T09:55:04.821Z,1008.44
2018-08-31T09:56:04.844Z,1008.41
2018-08-31T09:57:04.864Z,1008.41
2018-08-31T09:58:04.886Z,1008.37
2018-08-31T09:59:04.907Z,1008.43
2018-08-31T10:00:04.930Z,1008.39
2018-08-31T10:01:04.951Z,1008.41
2018-08-31T10:02:04.977Z,1008.47
2018-08-31T10:03:04.998Z,1008.43
2018-08-31T10:04:05.014Z,1008.45
2018-08-31T10:05:05.035Z,1008.43
2018-08-31T10:06:05.061Z,1008.43
2018-08-31T10:07:05.083Z,1008.46
2018-08-31T10:08:05.104Z,1008.46
2018-08-31T10:09:05.122Z,1008.44
2018-08-31T10:10:05.142Z,1008.44
2018-08-31T10:11:05.164Z,1008.51
2018-08-31T10:12:05.195Z,1008.50
2018-08-31T10:13:05.207Z,1008.51
2018-08-31T10:14:05.230Z,1008.55
2018-08-31T10:15:05.251Z,1008.51
2018-08-31T10:16:05.270Z,1008.58
2018-08-31T10:17:05.293Z,1008.56
2018-08-31T10:18:05.312Z,1008.55
2018-08-31T10:19:05.340Z,1008.53
2018-08-31T10:20:05.355Z,1008.57
2018-08-31T10:21:05.379Z,1008.57
2018-08-31T10:22:05.399Z,1008.63
2018-08-31T10:23:05.417Z,1008.63
2018-08-31T10:24:05.448Z,1008.64
2018-08-31T10:25:05.460Z,1008.66
2018-08-31T10:26:05.495Z,1008.64
2018-08-31T10:27:05.502Z,1008.61
2018-08-31T10:28:05.525Z,1008.63
2018-08-31T10:29:05.544Z,1008.68
2018-08-31T10:30:05.601Z,1008.72
2018-08-31T10:31:05.587Z,1008.79
2018-08-31T10:32:05.608Z,1008.74
2018-08-31T10:33:05.629Z,1008.73
2018-08-31T10:34:05.649Z,1008.76
2018-08-31T10:35:05.670Z,1008.77
2018-08-31T10:36:05.696Z,1008.75
2018-08-31T10:37:05.713Z,1008.69
2018-08-31T10:38:05.734Z,1008.65
2018-08-31T10:39:05.758Z,1008.63
2018-08-31T10:40:05.781Z,1008.64
2018-08-31T10:41:05.885Z,1008.64
2018-08-31T10:42:05.821Z,1008.60
2018-08-31T10:43:05.845Z,1008.51
2018-08-31T10:44:05.868Z,1008.53
2018-08-31T10:45:05.886Z,1008.47
2018-08-31T10:46:05.906Z,1008.37
2018-08-31T10:47:05.930Z,1008.41
2018-08-31T10:48:05.950Z,1008.45
2018-08-31T10:49:05.974Z,1008.43
2018-08-31T10:50:05.996Z,1008.34
2018-08-31T10:51:06.017Z,1008.40
2018-08-31T10:52:06.039Z,1008.33
2018-08-31T10:53:06.062Z,1008.35
2018-08-31T10:54:06.082Z,1008.38
2018-08-31T10:55:06.106Z,1008.40
2018-08-31T10:56:06.137Z,1008.45
2018-08-31T10:57:06.147Z,1008.48
2018-08-31T10:58:06.170Z,1008.43
2018-08-31T10:59:06.194Z,1008.42
2018-08-31T11:00:06.246Z,1008.44
2018-08-31T11:01:06.238Z,1008.44
2018-08-31T11:02:06.262Z,1008.45
2018-08-31T11:03:06.282Z,1008.44
2018-08-31T11:04:06.307Z,1008.49
2018-08-31T11:05:06.327Z,1008.45
2018-08-31T11:06:06.349Z,1008.37
2018-08-31T11:07:06.372Z,1008.39
2018-08-31T11:08:06.392Z,1008.33
2018-08-31T11:09:06.413Z,1008.36
2018-08-31T11:10:06.436Z,1008.38
2018-08-31T11:11:06.464Z,1008.38
2018-08-31T11:12:06.484Z,1008.35
2018-08-31T11:13:06.583Z,1008.42
2018-08-31T11:14:06.522Z,1008.40
2018-08-31T11:15:06.592Z,1008.43
2018-08-31T11:16:06.573Z,1008.42
2018-08-31T11:17:06.588Z,1008.43
2018-08-31T11:18:06.615Z,1008.40
2018-08-31T11:19:06.636Z,1008.33
2018-08-31T11:20:06.658Z,1008.29
2018-08-31T11:21:06.678Z,1008.23
2018-08-31T11:22:06.699Z,1008.17
2018-08-31T11:23:06.721Z,1008.15
2018-08-31T11:24:06.743Z,1008.16
2018-08-31T11:25:06.765Z,1008.05
2018-08-31T11:26:06.789Z,1008.09
2018-08-31T11:27:06.809Z,1008.06
2018-08-31T11:28:06.830Z,1008.06
2018-08-31T11:29:06.854Z,1008.07
2018-08-31T11:30:06.878Z,1008.02
2018-08-31T11:31:06.900Z,1007.99
2018-08-31T11:32:06.918Z,1008.01
2018-08-31T11:33:06.942Z,1008.00
2018-08-31T11:34:06.961Z,1007.97
2018-08-31T11:35:06.987Z,1007.99
2018-08-31T11:36:07.010Z,1008.04
2018-08-31T11:37:07.026Z,1008.05
2018-08-31T11:38:07.084Z,1008.07
2018-08-31T11:39:07.069Z,1008.08
2018-08-31T11:40:07.095Z,1008.14
2018-08-31T11:41:07.117Z,1008.13
2018-08-31T11:42:07.134Z,1008.16
2018-08-31T11:43:07.158Z,1008.20
2018-08-31T11:44:07.182Z,1008.22
2018-08-31T11:45:07.199Z,1008.22
2018-08-31T11:46:07.225Z,1008.30
2018-08-31T11:47:07.244Z,1008.34
2018-08-31T11:48:07.265Z,1008.35
2018-08-31T11:49:07.283Z,1008.43
2018-08-31T11:50:07.336Z,1008.45
2018-08-31T11:51:07.343Z,1008.39
2018-08-31T11:52:07.353Z,1008.39
2018-08-31T11:53:07.371Z,1008.42
2018-08-31T11:54:07.394Z,1008.43
2018-08-31T11:55:07.435Z,1008.40
2018-08-31T11:56:07.437Z,1008.37
2018-08-31T11:57:07.460Z,1008.34
2018-08-31T11:58:07.483Z,1008.35
2018-08-31T11:59:07.539Z,1008.36
2018-08-31T12:00:07.523Z,1008.34
2018-08-31T12:01:07.613Z,1008.33
2018-08-31T12:02:07.639Z,1008.32
2018-08-31T12:03:07.590Z,1008.32
2018-08-31T12:04:07.613Z,1008.31
2018-08-31T12:05:07.630Z,1008.30
2018-08-31T12:06:07.653Z,1008.29